sensor_id;sensor_type;location;lat;lon;timestamp;P1;durP1;ratioP1;P2;durP2;ratioP2
44110;SDS011;29774;52.664;5.074;2024-03-29T00:02:12;4.85;;;0.65;;
44110;SDS011;29774;52.664;5.074;2024-03-29T00:04:38;4.65;;;0.90;;
44110;SDS011;29774;52.664;5.074;2024-03-29T00:07:03;2.03;;;0.63;;
44110;SDS011;29774;52.664;5.074;2024-03-29T00:09:29;2.45;;;0.75;;
44110;SDS011;29774;52.664;5.074;2024-03-29T00:11:55;0.77;;;0.77;;
44110;SDS011;29774;52.664;5.074;2024-03-29T00:14:20;2.83;;;0.90;;
44110;SDS011;29774;52.664;5.074;2024-03-29T00:16:46;2.88;;;0.98;;
44110;SDS011;29774;52.664;5.074;2024-03-29T00:19:11;4.03;;;0.82;;
44110;SDS011;29774;52.664;5.074;2024-03-29T00:21:37;2.50;;;0.75;;
44110;SDS011;29774;52.664;5.074;2024-03-29T00:24:03;2.63;;;1.10;;
44110;SDS011;29774;52.664;5.074;2024-03-29T00:26:28;2.90;;;0.65;;
44110;SDS011;29774;52.664;5.074;2024-03-29T00:28:54;2.92;;;0.90;;
44110;SDS011;29774;52.664;5.074;2024-03-29T00:31:20;1.70;;;0.75;;
44110;SDS011;29774;52.664;5.074;2024-03-29T00:33:46;2.83;;;0.90;;
44110;SDS011;29774;52.664;5.074;2024-03-29T00:36:11;2.47;;;0.90;;
44110;SDS011;29774;52.664;5.074;2024-03-29T00:38:37;4.00;;;1.00;;
44110;SDS011;29774;52.664;5.074;2024-03-29T00:41:02;4.22;;;1.00;;
44110;SDS011;29774;52.664;5.074;2024-03-29T00:43:28;0.45;;;0.45;;
44110;SDS011;29774;52.664;5.074;2024-03-29T00:45:53;2.95;;;1.10;;
44110;SDS011;29774;52.664;5.074;2024-03-29T00:48:19;1.85;;;1.08;;
44110;SDS011;29774;52.664;5.074;2024-03-29T00:50:45;5.45;;;1.00;;
44110;SDS011;29774;52.664;5.074;2024-03-29T00:53:11;2.38;;;0.93;;
44110;SDS011;29774;52.664;5.074;2024-03-29T00:55:37;3.58;;;1.00;;
44110;SDS011;29774;52.664;5.074;2024-03-29T00:58:02;4.95;;;1.08;;
44110;SDS011;29774;52.664;5.074;2024-03-29T01:00:28;4.25;;;0.90;;
44110;SDS011;29774;52.664;5.074;2024-03-29T01:02:53;3.72;;;0.90;;
44110;SDS011;29774;52.664;5.074;2024-03-29T01:05:19;3.33;;;0.90;;
44110;SDS011;29774;52.664;5.074;2024-03-29T01:07:44;3.65;;;0.90;;
44110;SDS011;29774;52.664;5.074;2024-03-29T01:10:10;4.07;;;1.13;;
44110;SDS011;29774;52.664;5.074;2024-03-29T01:12:36;3.30;;;0.82;;
44110;SDS011;29774;52.664;5.074;2024-03-29T01:15:02;5.97;;;0.85;;
44110;SDS011;29774;52.664;5.074;2024-03-29T01:17:28;3.30;;;0.88;;
44110;SDS011;29774;52.664;5.074;2024-03-29T01:19:54;2.33;;;0.77;;
44110;SDS011;29774;52.664;5.074;2024-03-29T01:22:20;2.10;;;0.55;;
44110;SDS011;29774;52.664;5.074;2024-03-29T01:24:45;1.52;;;0.77;;
44110;SDS011;29774;52.664;5.074;2024-03-29T01:27:11;3.20;;;0.77;;
44110;SDS011;29774;52.664;5.074;2024-03-29T01:29:37;2.88;;;0.60;;
44110;SDS011;29774;52.664;5.074;2024-03-29T01:32:02;0.95;;;0.60;;
44110;SDS011;29774;52.664;5.074;2024-03-29T01:34:30;6.28;;;0.60;;
44110;SDS011;29774;52.664;5.074;2024-03-29T01:36:55;2.63;;;0.65;;
44110;SDS011;29774;52.664;5.074;2024-03-29T01:39:21;1.85;;;0.80;;
44110;SDS011;29774;52.664;5.074;2024-03-29T01:41:51;6.03;;;1.17;;
44110;SDS011;29774;52.664;5.074;2024-03-29T01:44:17;2.28;;;0.90;;
44110;SDS011;29774;52.664;5.074;2024-03-29T01:46:43;3.10;;;0.80;;
44110;SDS011;29774;52.664;5.074;2024-03-29T01:49:09;3.28;;;0.98;;
44110;SDS011;29774;52.664;5.074;2024-03-29T01:51:36;2.95;;;0.70;;
44110;SDS011;29774;52.664;5.074;2024-03-29T01:54:04;1.88;;;0.63;;
44110;SDS011;29774;52.664;5.074;2024-03-29T01:56:31;7.72;;;0.93;;
44110;SDS011;29774;52.664;5.074;2024-03-29T01:58:57;2.78;;;0.90;;
44110;SDS011;29774;52.664;5.074;2024-03-29T02:01:24;3.78;;;1.05;;
44110;SDS011;29774;52.664;5.074;2024-03-29T02:03:51;3.50;;;1.10;;
44110;SDS011;29774;52.664;5.074;2024-03-29T02:06:17;3.40;;;0.98;;
44110;SDS011;29774;52.664;5.074;2024-03-29T02:08:43;0.93;;;0.60;;
44110;SDS011;29774;52.664;5.074;2024-03-29T02:11:09;3.42;;;1.00;;
44110;SDS011;29774;52.664;5.074;2024-03-29T02:13:35;2.83;;;1.20;;
44110;SDS011;29774;52.664;5.074;2024-03-29T02:16:02;2.65;;;1.00;;
44110;SDS011;29774;52.664;5.074;2024-03-29T02:18:27;2.75;;;0.77;;
44110;SDS011;29774;52.664;5.074;2024-03-29T02:20:53;4.15;;;1.10;;
44110;SDS011;29774;52.664;5.074;2024-03-29T02:23:19;2.90;;;0.93;;
44110;SDS011;29774;52.664;5.074;2024-03-29T02:25:51;2.67;;;0.70;;
44110;SDS011;29774;52.664;5.074;2024-03-29T02:28:16;5.00;;;0.90;;
44110;SDS011;29774;52.664;5.074;2024-03-29T02:30:42;1.98;;;0.82;;
44110;SDS011;29774;52.664;5.074;2024-03-29T02:33:08;3.30;;;0.90;;
44110;SDS011;29774;52.664;5.074;2024-03-29T02:35:33;4.93;;;0.98;;
44110;SDS011;29774;52.664;5.074;2024-03-29T02:37:59;5.90;;;1.15;;
44110;SDS011;29774;52.664;5.074;2024-03-29T02:40:25;4.35;;;0.80;;
44110;SDS011;29774;52.664;5.074;2024-03-29T02:42:50;0.95;;;0.60;;
44110;SDS011;29774;52.664;5.074;2024-03-29T02:45:16;2.08;;;0.75;;
44110;SDS011;29774;52.664;5.074;2024-03-29T02:47:42;3.22;;;0.90;;
44110;SDS011;29774;52.664;5.074;2024-03-29T02:50:12;3.97;;;0.90;;
44110;SDS011;29774;52.664;5.074;2024-03-29T02:52:39;2.42;;;0.93;;
44110;SDS011;29774;52.664;5.074;2024-03-29T02:55:04;1.63;;;0.90;;
44110;SDS011;29774;52.664;5.074;2024-03-29T02:57:30;0.60;;;0.50;;
44110;SDS011;29774;52.664;5.074;2024-03-29T02:59:56;3.65;;;0.70;;
44110;SDS011;29774;52.664;5.074;2024-03-29T03:02:21;3.72;;;0.90;;
44110;SDS011;29774;52.664;5.074;2024-03-29T03:04:47;3.58;;;0.80;;
44110;SDS011;29774;52.664;5.074;2024-03-29T03:07:13;3.10;;;0.80;;
44110;SDS011;29774;52.664;5.074;2024-03-29T03:09:57;2.40;;;0.70;;
44110;SDS011;29774;52.664;5.074;2024-03-29T03:12:41;2.65;;;0.93;;
44110;SDS011;29774;52.664;5.074;2024-03-29T03:15:06;5.50;;;1.45;;
44110;SDS011;29774;52.664;5.074;2024-03-29T03:17:33;1.70;;;0.80;;
44110;SDS011;29774;52.664;5.074;2024-03-29T03:19:58;1.05;;;0.65;;
44110;SDS011;29774;52.664;5.074;2024-03-29T03:22:24;2.53;;;0.77;;
44110;SDS011;29774;52.664;5.074;2024-03-29T03:24:50;2.45;;;0.80;;
44110;SDS011;29774;52.664;5.074;2024-03-29T03:27:15;6.05;;;1.10;;
44110;SDS011;29774;52.664;5.074;2024-03-29T03:29:41;2.65;;;1.08;;
44110;SDS011;29774;52.664;5.074;2024-03-29T03:32:07;3.67;;;0.65;;
44110;SDS011;29774;52.664;5.074;2024-03-29T03:34:32;5.10;;;0.98;;
44110;SDS011;29774;52.664;5.074;2024-03-29T03:36:58;4.05;;;0.80;;
44110;SDS011;29774;52.664;5.074;2024-03-29T03:39:24;1.80;;;0.60;;
44110;SDS011;29774;52.664;5.074;2024-03-29T03:41:50;3.97;;;0.80;;
44110;SDS011;29774;52.664;5.074;2024-03-29T03:44:16;3.80;;;0.90;;
44110;SDS011;29774;52.664;5.074;2024-03-29T03:46:41;3.10;;;0.95;;
44110;SDS011;29774;52.664;5.074;2024-03-29T03:49:07;6.68;;;1.30;;
44110;SDS011;29774;52.664;5.074;2024-03-29T03:51:33;2.47;;;0.80;;
44110;SDS011;29774;52.664;5.074;2024-03-29T03:53:58;2.58;;;0.98;;
44110;SDS011;29774;52.664;5.074;2024-03-29T03:56:24;5.55;;;1.02;;
44110;SDS011;29774;52.664;5.074;2024-03-29T03:58:49;2.80;;;0.75;;
44110;SDS011;29774;52.664;5.074;2024-03-29T04:01:15;2.67;;;0.85;;
44110;SDS011;29774;52.664;5.074;2024-03-29T04:03:41;2.92;;;0.70;;
44110;SDS011;29774;52.664;5.074;2024-03-29T04:06:06;2.65;;;0.90;;
44110;SDS011;29774;52.664;5.074;2024-03-29T04:08:32;2.58;;;0.70;;
44110;SDS011;29774;52.664;5.074;2024-03-29T04:11:01;4.38;;;0.82;;
44110;SDS011;29774;52.664;5.074;2024-03-29T04:13:27;1.75;;;0.73;;
44110;SDS011;29774;52.664;5.074;2024-03-29T04:15:53;1.88;;;1.00;;
44110;SDS011;29774;52.664;5.074;2024-03-29T04:18:25;2.63;;;1.00;;
44110;SDS011;29774;52.664;5.074;2024-03-29T04:20:55;4.28;;;0.80;;
44110;SDS011;29774;52.664;5.074;2024-03-29T04:23:25;1.48;;;0.82;;
44110;SDS011;29774;52.664;5.074;2024-03-29T04:25:53;3.55;;;1.35;;
44110;SDS011;29774;52.664;5.074;2024-03-29T04:28:23;3.30;;;0.80;;
44110;SDS011;29774;52.664;5.074;2024-03-29T04:30:56;3.50;;;1.05;;
44110;SDS011;29774;52.664;5.074;2024-03-29T04:33:23;2.17;;;0.82;;
44110;SDS011;29774;52.664;5.074;2024-03-29T04:36:02;5.85;;;0.90;;
44110;SDS011;29774;52.664;5.074;2024-03-29T04:38:29;3.92;;;1.00;;
44110;SDS011;29774;52.664;5.074;2024-03-29T04:40:55;5.18;;;0.90;;
44110;SDS011;29774;52.664;5.074;2024-03-29T04:43:22;3.35;;;1.17;;
44110;SDS011;29774;52.664;5.074;2024-03-29T04:48:50;1.85;;;0.60;;
44110;SDS011;29774;52.664;5.074;2024-03-29T04:51:15;2.47;;;0.82;;
44110;SDS011;29774;52.664;5.074;2024-03-29T04:53:41;1.92;;;1.20;;
44110;SDS011;29774;52.664;5.074;2024-03-29T04:56:07;2.80;;;0.70;;
44110;SDS011;29774;52.664;5.074;2024-03-29T04:58:32;2.00;;;0.95;;
44110;SDS011;29774;52.664;5.074;2024-03-29T05:00:58;2.67;;;0.77;;
44110;SDS011;29774;52.664;5.074;2024-03-29T05:03:24;3.10;;;0.80;;
44110;SDS011;29774;52.664;5.074;2024-03-29T05:05:50;2.85;;;0.75;;
44110;SDS011;29774;52.664;5.074;2024-03-29T05:08:16;3.67;;;0.75;;
44110;SDS011;29774;52.664;5.074;2024-03-29T05:10:44;2.13;;;0.80;;
44110;SDS011;29774;52.664;5.074;2024-03-29T05:13:10;1.67;;;0.70;;
44110;SDS011;29774;52.664;5.074;2024-03-29T05:15:35;1.90;;;0.75;;
44110;SDS011;29774;52.664;5.074;2024-03-29T05:18:01;2.50;;;0.80;;
44110;SDS011;29774;52.664;5.074;2024-03-29T05:20:28;1.33;;;0.60;;
44110;SDS011;29774;52.664;5.074;2024-03-29T05:22:54;2.42;;;1.10;;
44110;SDS011;29774;52.664;5.074;2024-03-29T05:25:19;0.85;;;0.50;;
44110;SDS011;29774;52.664;5.074;2024-03-29T05:27:45;2.17;;;0.63;;
44110;SDS011;29774;52.664;5.074;2024-03-29T05:30:10;2.40;;;0.60;;
44110;SDS011;29774;52.664;5.074;2024-03-29T05:32:38;1.20;;;0.70;;
44110;SDS011;29774;52.664;5.074;2024-03-29T05:35:03;2.15;;;0.70;;
44110;SDS011;29774;52.664;5.074;2024-03-29T05:37:29;1.00;;;0.55;;
44110;SDS011;29774;52.664;5.074;2024-03-29T05:39:55;3.80;;;0.90;;
44110;SDS011;29774;52.664;5.074;2024-03-29T05:42:30;1.38;;;0.47;;
44110;SDS011;29774;52.664;5.074;2024-03-29T05:44:57;2.50;;;0.88;;
44110;SDS011;29774;52.664;5.074;2024-03-29T05:47:22;1.98;;;0.65;;
44110;SDS011;29774;52.664;5.074;2024-03-29T05:49:48;2.75;;;0.70;;
44110;SDS011;29774;52.664;5.074;2024-03-29T05:52:14;2.03;;;0.57;;
44110;SDS011;29774;52.664;5.074;2024-03-29T05:54:41;0.43;;;0.40;;
44110;SDS011;29774;52.664;5.074;2024-03-29T05:57:10;1.27;;;0.60;;
44110;SDS011;29774;52.664;5.074;2024-03-29T05:59:36;3.67;;;0.63;;
44110;SDS011;29774;52.664;5.074;2024-03-29T06:02:03;1.85;;;0.60;;
44110;SDS011;29774;52.664;5.074;2024-03-29T06:04:29;3.45;;;1.02;;
44110;SDS011;29774;52.664;5.074;2024-03-29T06:07:01;1.67;;;0.50;;
44110;SDS011;29774;52.664;5.074;2024-03-29T06:09:27;0.90;;;0.40;;
44110;SDS011;29774;52.664;5.074;2024-03-29T06:11:54;2.10;;;0.50;;
44110;SDS011;29774;52.664;5.074;2024-03-29T06:14:20;0.40;;;0.40;;
44110;SDS011;29774;52.664;5.074;2024-03-29T06:17:05;1.25;;;0.40;;
44110;SDS011;29774;52.664;5.074;2024-03-29T06:19:49;0.63;;;0.40;;
44110;SDS011;29774;52.664;5.074;2024-03-29T06:22:21;0.90;;;0.65;;
44110;SDS011;29774;52.664;5.074;2024-03-29T06:24:48;0.75;;;0.52;;
44110;SDS011;29774;52.664;5.074;2024-03-29T06:27:16;1.67;;;0.60;;
44110;SDS011;29774;52.664;5.074;2024-03-29T06:29:47;1.40;;;0.40;;
44110;SDS011;29774;52.664;5.074;2024-03-29T06:32:15;0.90;;;0.50;;
44110;SDS011;29774;52.664;5.074;2024-03-29T06:34:44;1.73;;;0.50;;
44110;SDS011;29774;52.664;5.074;2024-03-29T06:37:10;0.50;;;0.32;;
44110;SDS011;29774;52.664;5.074;2024-03-29T06:39:36;1.63;;;0.40;;
44110;SDS011;29774;52.664;5.074;2024-03-29T06:42:02;0.45;;;0.30;;
44110;SDS011;29774;52.664;5.074;2024-03-29T06:44:28;0.60;;;0.40;;
44110;SDS011;29774;52.664;5.074;2024-03-29T06:46:53;1.15;;;0.60;;
44110;SDS011;29774;52.664;5.074;2024-03-29T06:49:19;0.20;;;0.20;;
44110;SDS011;29774;52.664;5.074;2024-03-29T06:51:45;1.42;;;0.40;;
44110;SDS011;29774;52.664;5.074;2024-03-29T06:54:10;1.38;;;0.38;;
44110;SDS011;29774;52.664;5.074;2024-03-29T06:56:36;1.40;;;0.35;;
44110;SDS011;29774;52.664;5.074;2024-03-29T06:59:02;0.75;;;0.40;;
44110;SDS011;29774;52.664;5.074;2024-03-29T07:01:27;1.00;;;0.40;;
44110;SDS011;29774;52.664;5.074;2024-03-29T07:03:53;0.55;;;0.35;;
44110;SDS011;29774;52.664;5.074;2024-03-29T07:06:18;1.27;;;0.45;;
44110;SDS011;29774;52.664;5.074;2024-03-29T07:08:44;1.85;;;0.30;;
44110;SDS011;29774;52.664;5.074;2024-03-29T07:11:10;0.52;;;0.50;;
44110;SDS011;29774;52.664;5.074;2024-03-29T07:13:36;0.50;;;0.40;;
44110;SDS011;29774;52.664;5.074;2024-03-29T07:16:02;0.30;;;0.30;;
44110;SDS011;29774;52.664;5.074;2024-03-29T07:18:28;2.83;;;0.45;;
44110;SDS011;29774;52.664;5.074;2024-03-29T07:20:54;2.30;;;0.38;;
44110;SDS011;29774;52.664;5.074;2024-03-29T07:23:20;0.63;;;0.60;;
44110;SDS011;29774;52.664;5.074;2024-03-29T07:25:56;0.63;;;0.40;;
44110;SDS011;29774;52.664;5.074;2024-03-29T07:28:26;0.75;;;0.30;;
44110;SDS011;29774;52.664;5.074;2024-03-29T07:30:52;0.70;;;0.35;;
44110;SDS011;29774;52.664;5.074;2024-03-29T07:33:21;0.77;;;0.43;;
44110;SDS011;29774;52.664;5.074;2024-03-29T07:35:53;2.10;;;0.60;;
44110;SDS011;29774;52.664;5.074;2024-03-29T07:38:20;0.90;;;0.60;;
44110;SDS011;29774;52.664;5.074;2024-03-29T07:40:48;0.95;;;0.30;;
44110;SDS011;29774;52.664;5.074;2024-03-29T07:43:14;1.05;;;0.52;;
44110;SDS011;29774;52.664;5.074;2024-03-29T07:45:43;1.17;;;0.50;;
44110;SDS011;29774;52.664;5.074;2024-03-29T07:48:18;1.15;;;0.40;;
44110;SDS011;29774;52.664;5.074;2024-03-29T07:50:44;1.27;;;0.45;;
44110;SDS011;29774;52.664;5.074;2024-03-29T07:53:11;0.55;;;0.40;;
44110;SDS011;29774;52.664;5.074;2024-03-29T07:55:37;0.70;;;0.70;;
44110;SDS011;29774;52.664;5.074;2024-03-29T07:58:04;1.73;;;0.43;;
44110;SDS011;29774;52.664;5.074;2024-03-29T08:00:33;1.67;;;0.52;;
44110;SDS011;29774;52.664;5.074;2024-03-29T08:02:59;0.52;;;0.40;;
44110;SDS011;29774;52.664;5.074;2024-03-29T08:05:26;2.00;;;0.47;;
44110;SDS011;29774;52.664;5.074;2024-03-29T08:07:54;1.95;;;0.50;;
44110;SDS011;29774;52.664;5.074;2024-03-29T08:10:20;0.47;;;0.30;;
44110;SDS011;29774;52.664;5.074;2024-03-29T08:12:47;0.57;;;0.38;;
44110;SDS011;29774;52.664;5.074;2024-03-29T08:15:13;0.82;;;0.47;;
44110;SDS011;29774;52.664;5.074;2024-03-29T08:17:39;1.10;;;0.47;;
44110;SDS011;29774;52.664;5.074;2024-03-29T08:20:05;0.70;;;0.40;;
44110;SDS011;29774;52.664;5.074;2024-03-29T08:22:30;1.50;;;0.55;;
44110;SDS011;29774;52.664;5.074;2024-03-29T08:24:59;0.88;;;0.45;;
44110;SDS011;29774;52.664;5.074;2024-03-29T08:27:26;0.30;;;0.30;;
44110;SDS011;29774;52.664;5.074;2024-03-29T08:29:52;1.08;;;0.40;;
44110;SDS011;29774;52.664;5.074;2024-03-29T08:32:18;1.92;;;0.60;;
44110;SDS011;29774;52.664;5.074;2024-03-29T08:34:43;1.10;;;0.60;;
44110;SDS011;29774;52.664;5.074;2024-03-29T08:37:09;0.40;;;0.40;;
44110;SDS011;29774;52.664;5.074;2024-03-29T08:39:35;1.67;;;0.80;;
44110;SDS011;29774;52.664;5.074;2024-03-29T08:42:02;1.38;;;0.63;;
44110;SDS011;29774;52.664;5.074;2024-03-29T08:44:30;2.25;;;0.60;;
44110;SDS011;29774;52.664;5.074;2024-03-29T08:46:56;0.63;;;0.60;;
44110;SDS011;29774;52.664;5.074;2024-03-29T08:49:23;0.60;;;0.50;;
44110;SDS011;29774;52.664;5.074;2024-03-29T08:51:49;0.82;;;0.30;;
44110;SDS011;29774;52.664;5.074;2024-03-29T08:54:15;1.63;;;0.60;;
44110;SDS011;29774;52.664;5.074;2024-03-29T08:56:40;1.50;;;0.40;;
44110;SDS011;29774;52.664;5.074;2024-03-29T08:59:06;0.93;;;0.43;;
44110;SDS011;29774;52.664;5.074;2024-03-29T09:01:36;0.60;;;0.50;;
44110;SDS011;29774;52.664;5.074;2024-03-29T09:04:02;0.57;;;0.45;;
44110;SDS011;29774;52.664;5.074;2024-03-29T09:06:29;0.65;;;0.32;;
44110;SDS011;29774;52.664;5.074;2024-03-29T09:08:55;1.02;;;0.50;;
44110;SDS011;29774;52.664;5.074;2024-03-29T09:11:20;0.52;;;0.40;;
44110;SDS011;29774;52.664;5.074;2024-03-29T09:13:46;1.00;;;0.47;;
44110;SDS011;29774;52.664;5.074;2024-03-29T09:16:12;0.30;;;0.30;;
44110;SDS011;29774;52.664;5.074;2024-03-29T09:18:37;0.80;;;0.50;;
44110;SDS011;29774;52.664;5.074;2024-03-29T09:21:04;0.90;;;0.40;;
44110;SDS011;29774;52.664;5.074;2024-03-29T09:23:29;0.77;;;0.50;;
44110;SDS011;29774;52.664;5.074;2024-03-29T09:25:55;0.80;;;0.32;;
44110;SDS011;29774;52.664;5.074;2024-03-29T09:28:22;0.77;;;0.47;;
44110;SDS011;29774;52.664;5.074;2024-03-29T09:30:48;0.47;;;0.40;;
44110;SDS011;29774;52.664;5.074;2024-03-29T09:33:14;1.13;;;0.50;;
44110;SDS011;29774;52.664;5.074;2024-03-29T09:35:40;0.65;;;0.50;;
44110;SDS011;29774;52.664;5.074;2024-03-29T09:38:05;2.08;;;0.50;;
44110;SDS011;29774;52.664;5.074;2024-03-29T09:40:33;1.10;;;0.50;;
44110;SDS011;29774;52.664;5.074;2024-03-29T09:43:02;0.82;;;0.40;;
44110;SDS011;29774;52.664;5.074;2024-03-29T09:45:30;0.63;;;0.32;;
44110;SDS011;29774;52.664;5.074;2024-03-29T09:47:58;0.85;;;0.40;;
44110;SDS011;29774;52.664;5.074;2024-03-29T09:50:27;0.50;;;0.30;;
44110;SDS011;29774;52.664;5.074;2024-03-29T09:52:53;1.13;;;0.60;;
44110;SDS011;29774;52.664;5.074;2024-03-29T09:55:20;0.30;;;0.30;;
44110;SDS011;29774;52.664;5.074;2024-03-29T09:57:47;0.52;;;0.47;;
44110;SDS011;29774;52.664;5.074;2024-03-29T10:00:13;0.38;;;0.30;;
44110;SDS011;29774;52.664;5.074;2024-03-29T10:02:39;0.40;;;0.40;;
44110;SDS011;29774;52.664;5.074;2024-03-29T10:05:06;1.27;;;0.55;;
44110;SDS011;29774;52.664;5.074;2024-03-29T10:07:35;1.15;;;0.40;;
44110;SDS011;29774;52.664;5.074;2024-03-29T10:10:01;0.30;;;0.30;;
44110;SDS011;29774;52.664;5.074;2024-03-29T10:12:28;0.40;;;0.40;;
44110;SDS011;29774;52.664;5.074;2024-03-29T10:14:55;0.25;;;0.25;;
44110;SDS011;29774;52.664;5.074;2024-03-29T10:17:30;0.90;;;0.40;;
44110;SDS011;29774;52.664;5.074;2024-03-29T10:19:59;0.50;;;0.50;;
44110;SDS011;29774;52.664;5.074;2024-03-29T10:22:26;1.05;;;0.68;;
44110;SDS011;29774;52.664;5.074;2024-03-29T10:24:52;0.50;;;0.50;;
44110;SDS011;29774;52.664;5.074;2024-03-29T10:27:17;1.27;;;0.60;;
44110;SDS011;29774;52.664;5.074;2024-03-29T10:29:43;0.77;;;0.50;;
44110;SDS011;29774;52.664;5.074;2024-03-29T10:32:09;1.73;;;0.80;;
44110;SDS011;29774;52.664;5.074;2024-03-29T10:34:34;1.45;;;0.70;;
44110;SDS011;29774;52.664;5.074;2024-03-29T10:37:04;1.75;;;0.60;;
44110;SDS011;29774;52.664;5.074;2024-03-29T10:39:30;1.10;;;0.60;;
44110;SDS011;29774;52.664;5.074;2024-03-29T10:41:59;0.63;;;0.50;;
44110;SDS011;29774;52.664;5.074;2024-03-29T10:44:25;0.70;;;0.70;;
44110;SDS011;29774;52.664;5.074;2024-03-29T10:46:53;0.57;;;0.47;;
44110;SDS011;29774;52.664;5.074;2024-03-29T10:49:21;1.23;;;0.60;;
44110;SDS011;29774;52.664;5.074;2024-03-29T10:51:48;0.88;;;0.45;;
44110;SDS011;29774;52.664;5.074;2024-03-29T10:54:16;0.75;;;0.60;;
44110;SDS011;29774;52.664;5.074;2024-03-29T10:56:42;1.08;;;0.60;;
44110;SDS011;29774;52.664;5.074;2024-03-29T10:59:16;0.70;;;0.65;;
44110;SDS011;29774;52.664;5.074;2024-03-29T11:01:47;0.50;;;0.50;;
44110;SDS011;29774;52.664;5.074;2024-03-29T11:04:22;1.17;;;0.60;;
44110;SDS011;29774;52.664;5.074;2024-03-29T11:06:51;0.50;;;0.50;;
44110;SDS011;29774;52.664;5.074;2024-03-29T11:09:19;1.60;;;0.75;;
44110;SDS011;29774;52.664;5.074;2024-03-29T11:11:48;1.25;;;0.70;;
44110;SDS011;29774;52.664;5.074;2024-03-29T11:14:18;0.93;;;0.63;;
44110;SDS011;29774;52.664;5.074;2024-03-29T11:16:49;0.52;;;0.52;;
44110;SDS011;29774;52.664;5.074;2024-03-29T11:19:18;0.60;;;0.50;;
44110;SDS011;29774;52.664;5.074;2024-03-29T11:21:43;0.73;;;0.70;;
44110;SDS011;29774;52.664;5.074;2024-03-29T11:24:13;0.88;;;0.88;;
44110;SDS011;29774;52.664;5.074;2024-03-29T11:26:41;1.58;;;0.50;;
44110;SDS011;29774;52.664;5.074;2024-03-29T11:29:07;0.40;;;0.40;;
44110;SDS011;29774;52.664;5.074;2024-03-29T11:31:47;1.08;;;0.98;;
44110;SDS011;29774;52.664;5.074;2024-03-29T11:34:18;2.10;;;0.55;;
44110;SDS011;29774;52.664;5.074;2024-03-29T11:36:45;1.67;;;1.20;;
44110;SDS011;29774;52.664;5.074;2024-03-29T11:39:19;2.15;;;0.73;;
44110;SDS011;29774;52.664;5.074;2024-03-29T11:41:46;1.02;;;0.93;;
44110;SDS011;29774;52.664;5.074;2024-03-29T11:44:12;0.80;;;0.80;;
44110;SDS011;29774;52.664;5.074;2024-03-29T11:46:38;1.45;;;0.47;;
44110;SDS011;29774;52.664;5.074;2024-03-29T11:49:05;0.60;;;0.60;;
44110;SDS011;29774;52.664;5.074;2024-03-29T11:51:31;0.90;;;0.55;;
44110;SDS011;29774;52.664;5.074;2024-03-29T11:53:56;0.70;;;0.70;;
44110;SDS011;29774;52.664;5.074;2024-03-29T11:56:22;1.23;;;0.80;;
44110;SDS011;29774;52.664;5.074;2024-03-29T11:58:48;0.70;;;0.70;;
44110;SDS011;29774;52.664;5.074;2024-03-29T12:01:15;0.82;;;0.80;;
44110;SDS011;29774;52.664;5.074;2024-03-29T12:03:41;0.70;;;0.68;;
44110;SDS011;29774;52.664;5.074;2024-03-29T12:06:08;1.83;;;0.47;;
44110;SDS011;29774;52.664;5.074;2024-03-29T12:08:38;1.42;;;0.63;;
44110;SDS011;29774;52.664;5.074;2024-03-29T12:11:05;0.70;;;0.70;;
44110;SDS011;29774;52.664;5.074;2024-03-29T12:13:31;0.80;;;0.80;;
44110;SDS011;29774;52.664;5.074;2024-03-29T12:15:57;1.05;;;0.93;;
44110;SDS011;29774;52.664;5.074;2024-03-29T12:18:24;1.05;;;0.65;;
44110;SDS011;29774;52.664;5.074;2024-03-29T12:20:51;1.40;;;0.90;;
44110;SDS011;29774;52.664;5.074;2024-03-29T12:23:17;1.42;;;0.70;;
44110;SDS011;29774;52.664;5.074;2024-03-29T12:25:45;0.70;;;0.70;;
44110;SDS011;29774;52.664;5.074;2024-03-29T12:28:12;0.73;;;0.68;;
44110;SDS011;29774;52.664;5.074;2024-03-29T12:30:45;0.93;;;0.65;;
44110;SDS011;29774;52.664;5.074;2024-03-29T12:33:16;1.25;;;1.15;;
44110;SDS011;29774;52.664;5.074;2024-03-29T12:35:48;1.52;;;0.80;;
44110;SDS011;29774;52.664;5.074;2024-03-29T12:38:15;0.80;;;0.80;;
44110;SDS011;29774;52.664;5.074;2024-03-29T12:40:42;3.00;;;1.92;;
44110;SDS011;29774;52.664;5.074;2024-03-29T12:43:10;0.95;;;0.95;;
44110;SDS011;29774;52.664;5.074;2024-03-29T12:45:36;0.63;;;0.63;;
44110;SDS011;29774;52.664;5.074;2024-03-29T12:50:39;0.68;;;0.68;;
44110;SDS011;29774;52.664;5.074;2024-03-29T12:53:06;1.73;;;0.80;;
44110;SDS011;29774;52.664;5.074;2024-03-29T12:55:32;0.82;;;0.70;;
44110;SDS011;29774;52.664;5.074;2024-03-29T12:58:04;0.80;;;0.80;;
44110;SDS011;29774;52.664;5.074;2024-03-29T13:00:34;2.97;;;1.10;;
44110;SDS011;29774;52.664;5.074;2024-03-29T13:03:02;0.77;;;0.70;;
44110;SDS011;29774;52.664;5.074;2024-03-29T13:05:28;3.38;;;2.10;;
44110;SDS011;29774;52.664;5.074;2024-03-29T13:08:10;1.10;;;1.00;;
44110;SDS011;29774;52.664;5.074;2024-03-29T13:10:39;0.98;;;0.98;;
44110;SDS011;29774;52.664;5.074;2024-03-29T13:13:05;1.88;;;1.02;;
44110;SDS011;29774;52.664;5.074;2024-03-29T13:15:32;1.55;;;1.20;;
44110;SDS011;29774;52.664;5.074;2024-03-29T13:18:03;2.80;;;1.00;;
44110;SDS011;29774;52.664;5.074;2024-03-29T13:20:29;1.10;;;1.00;;
44110;SDS011;29774;52.664;5.074;2024-03-29T13:22:56;3.45;;;1.02;;
44110;SDS011;29774;52.664;5.074;2024-03-29T13:25:23;1.67;;;1.58;;
44110;SDS011;29774;52.664;5.074;2024-03-29T13:27:53;3.28;;;1.60;;
44110;SDS011;29774;52.664;5.074;2024-03-29T13:30:23;3.00;;;1.75;;
44110;SDS011;29774;52.664;5.074;2024-03-29T13:32:50;3.05;;;1.20;;
44110;SDS011;29774;52.664;5.074;2024-03-29T13:35:16;1.05;;;0.95;;
44110;SDS011;29774;52.664;5.074;2024-03-29T13:37:46;1.48;;;1.38;;
44110;SDS011;29774;52.664;5.074;2024-03-29T13:40:13;1.85;;;0.95;;
44110;SDS011;29774;52.664;5.074;2024-03-29T13:42:39;2.13;;;0.95;;
44110;SDS011;29774;52.664;5.074;2024-03-29T13:45:06;1.70;;;1.20;;
44110;SDS011;29774;52.664;5.074;2024-03-29T13:47:33;2.08;;;1.00;;
44110;SDS011;29774;52.664;5.074;2024-03-29T13:50:00;2.17;;;1.67;;
44110;SDS011;29774;52.664;5.074;2024-03-29T13:52:25;2.17;;;1.00;;
44110;SDS011;29774;52.664;5.074;2024-03-29T13:54:55;3.15;;;1.60;;
44110;SDS011;29774;52.664;5.074;2024-03-29T13:57:20;2.42;;;1.40;;
44110;SDS011;29774;52.664;5.074;2024-03-29T13:59:46;1.20;;;0.90;;
44110;SDS011;29774;52.664;5.074;2024-03-29T14:02:13;2.15;;;1.30;;
44110;SDS011;29774;52.664;5.074;2024-03-29T14:04:41;2.15;;;1.60;;
44110;SDS011;29774;52.664;5.074;2024-03-29T14:07:08;1.17;;;0.85;;
44110;SDS011;29774;52.664;5.074;2024-03-29T14:09:36;1.73;;;1.08;;
44110;SDS011;29774;52.664;5.074;2024-03-29T14:12:03;2.83;;;1.45;;
44110;SDS011;29774;52.664;5.074;2024-03-29T14:14:29;4.55;;;1.20;;
44110;SDS011;29774;52.664;5.074;2024-03-29T14:16:55;2.55;;;1.70;;
44110;SDS011;29774;52.664;5.074;2024-03-29T14:19:21;0.90;;;0.90;;
44110;SDS011;29774;52.664;5.074;2024-03-29T14:21:47;1.23;;;1.08;;
44110;SDS011;29774;52.664;5.074;2024-03-29T14:24:12;1.63;;;1.23;;
44110;SDS011;29774;52.664;5.074;2024-03-29T14:26:38;1.70;;;1.40;;
44110;SDS011;29774;52.664;5.074;2024-03-29T14:29:04;2.08;;;1.30;;
44110;SDS011;29774;52.664;5.074;2024-03-29T14:31:31;1.80;;;0.98;;
44110;SDS011;29774;52.664;5.074;2024-03-29T14:33:57;1.83;;;1.30;;
44110;SDS011;29774;52.664;5.074;2024-03-29T14:36:23;2.67;;;1.88;;
44110;SDS011;29774;52.664;5.074;2024-03-29T14:38:49;1.60;;;1.50;;
44110;SDS011;29774;52.664;5.074;2024-03-29T14:41:15;1.83;;;1.55;;
44110;SDS011;29774;52.664;5.074;2024-03-29T14:43:41;2.15;;;1.58;;
44110;SDS011;29774;52.664;5.074;2024-03-29T14:46:09;2.45;;;1.50;;
44110;SDS011;29774;52.664;5.074;2024-03-29T14:48:34;2.08;;;1.67;;
44110;SDS011;29774;52.664;5.074;2024-03-29T14:51:00;2.38;;;1.50;;
44110;SDS011;29774;52.664;5.074;2024-03-29T14:53:25;3.10;;;1.85;;